createdAt,value
2022-08-29T00:03:55.973Z,78.14
2022-08-29T00:09:55.955Z,77.21
2022-08-29T00:15:55.945Z,76.29
2022-08-29T00:21:55.960Z,76.36
2022-08-29T00:27:55.950Z,76.83
2022-08-29T00:33:55.910Z,79.79
2022-08-29T00:39:55.969Z,78.32
2022-08-29T00:45:56.033Z,77.57
2022-08-29T00:51:55.957Z,76.11
2022-08-29T00:57:55.966Z,76.79
2022-08-29T01:03:55.973Z,77.34
2022-08-29T01:09:55.953Z,77.82
2022-08-29T01:15:56.041Z,75.81
2022-08-29T01:21:55.943Z,75.50
2022-08-29T01:27:55.918Z,75.58
2022-08-29T01:33:56.137Z,76.09
2022-08-29T01:39:55.949Z,75.56
2022-08-29T01:45:56.023Z,76.86
2022-08-29T01:51:55.960Z,74.89
2022-08-29T01:57:55.955Z,73.76
2022-08-29T02:03:56.139Z,73.74
2022-08-29T02:09:56.163Z,74.12
2022-08-29T02:15:56.191Z,73.54
2022-08-29T02:21:56.196Z,74.03
2022-08-29T02:27:56.129Z,75.47
2022-08-29T02:33:56.127Z,75.70
2022-08-29T02:39:56.152Z,77.26
2022-08-29T02:45:56.168Z,75.27
2022-08-29T02:51:56.159Z,74.29
2022-08-29T02:57:56.142Z,74.01
2022-08-29T03:03:56.114Z,74.28
2022-08-29T03:09:56.167Z,75.05
2022-08-29T03:15:56.186Z,77.94
2022-08-29T03:21:56.136Z,78.98
2022-08-29T03:27:56.119Z,76.36
2022-08-29T03:33:56.125Z,77.25
2022-08-29T03:39:56.194Z,77.01
2022-08-29T03:45:56.151Z,75.46
2022-08-29T03:51:56.150Z,75.08
2022-08-29T03:57:56.152Z,76.28
2022-08-29T04:03:56.127Z,76.12
2022-08-29T04:09:56.173Z,77.01
2022-08-29T04:15:56.230Z,77.05
2022-08-29T04:21:56.169Z,77.08
2022-08-29T04:27:56.144Z,79.67
2022-08-29T04:33:56.154Z,82.91
2022-08-29T04:39:56.256Z,78.11
2022-08-29T04:45:56.248Z,76.13
2022-08-29T04:51:56.174Z,75.26
2022-08-29T04:57:56.184Z,74.86
2022-08-29T05:03:56.165Z,76.85
2022-08-29T05:09:56.182Z,79.42
2022-08-29T05:15:56.316Z,77.12
2022-08-29T05:21:56.423Z,75.65
2022-08-29T05:27:56.432Z,75.46
2022-08-29T05:33:56.408Z,75.54
2022-08-29T05:39:56.414Z,74.70
2022-08-29T05:45:56.455Z,74.36
2022-08-29T05:51:56.433Z,73.23
2022-08-29T05:57:56.415Z,75.31
2022-08-29T06:03:56.540Z,74.21
2022-08-29T06:09:58.270Z,73.73
2022-08-29T06:15:56.501Z,75.64
2022-08-29T06:21:56.437Z,74.42
2022-08-29T06:27:56.497Z,73.85
2022-08-29T06:33:56.431Z,72.53
2022-08-29T06:39:56.520Z,72.59
2022-08-29T06:45:56.538Z,73.27
2022-08-29T06:51:58.334Z,74.46
2022-08-29T06:57:56.495Z,73.55
2022-08-29T07:03:56.503Z,73.63
2022-08-29T07:09:56.475Z,71.95
2022-08-29T07:15:56.498Z,74.09
2022-08-29T07:21:58.284Z,75.88
2022-08-29T07:27:56.500Z,74.67
2022-08-29T07:34:02.748Z,73.98
2022-08-29T07:39:56.553Z,71.10
2022-08-29T07:45:56.585Z,70.03
2022-08-29T07:51:56.515Z,70.63
2022-08-29T07:57:56.531Z,72.77
2022-08-29T08:03:56.549Z,66.69
2022-08-29T08:09:56.568Z,70.73
2022-08-29T08:15:56.562Z,69.62
2022-08-29T08:21:56.555Z,65.07
2022-08-29T08:27:56.555Z,60.07
2022-08-29T08:33:56.544Z,61.04
2022-08-29T08:39:56.605Z,60.69
2022-08-29T08:45:56.616Z,58.57
2022-08-29T08:51:56.560Z,60.88
2022-08-29T08:57:56.573Z,54.44
2022-08-29T09:03:56.552Z,55.84
2022-08-29T09:09:56.584Z,54.15
2022-08-29T09:15:56.618Z,51.66
2022-08-29T09:21:56.611Z,48.16
2022-08-29T09:27:56.640Z,48.30
2022-08-29T09:33:56.646Z,51.21
2022-08-29T09:39:56.690Z,49.07
2022-08-29T09:45:56.763Z,48.62
2022-08-29T09:51:56.670Z,47.66
2022-08-29T09:57:56.709Z,52.67
2022-08-29T10:03:56.692Z,46.01
2022-08-29T10:09:57.631Z,49.74
2022-08-29T10:15:56.699Z,47.70
2022-08-29T10:21:56.696Z,51.76
2022-08-29T10:27:56.696Z,44.60
2022-08-29T10:33:56.698Z,45.85
2022-08-29T10:39:56.725Z,50.31
2022-08-29T10:45:56.744Z,46.00
2022-08-29T10:51:56.724Z,47.54
2022-08-29T10:57:56.714Z,47.73
2022-08-29T11:03:56.733Z,43.04
2022-08-29T11:09:56.979Z,44.18
2022-08-29T11:15:56.806Z,41.48
2022-08-29T11:21:56.937Z,44.70
2022-08-29T11:27:56.756Z,44.03
2022-08-29T11:33:56.767Z,41.03
2022-08-29T11:39:56.785Z,43.93
2022-08-29T11:45:56.794Z,42.97
2022-08-29T11:51:56.790Z,44.08
2022-08-29T11:58:00.507Z,41.91
2022-08-29T12:03:56.780Z,39.03
2022-08-29T12:09:56.817Z,37.92
2022-08-29T12:15:56.839Z,41.24
2022-08-29T12:21:56.824Z,37.27
2022-08-29T12:27:56.818Z,40.39
2022-08-29T12:33:56.818Z,35.13
2022-08-29T12:39:57.026Z,38.86
2022-08-29T12:45:56.854Z,38.13
2022-08-29T12:51:56.845Z,36.08
2022-08-29T12:57:56.854Z,41.16
2022-08-29T13:03:56.886Z,35.68
2022-08-29T13:09:56.857Z,37.44
2022-08-29T13:15:56.901Z,36.12
2022-08-29T13:21:56.868Z,36.82
2022-08-29T13:28:01.065Z,39.03
2022-08-29T13:33:56.850Z,36.03
2022-08-29T13:39:56.950Z,36.55
2022-08-29T13:45:56.918Z,38.60
2022-08-29T13:51:56.954Z,35.53
2022-08-29T13:57:56.971Z,32.05
2022-08-29T14:03:57.078Z,34.62
2022-08-29T14:27:56.990Z,32.91
2022-08-29T14:33:57.007Z,35.29
2022-08-29T14:39:57.097Z,33.71
2022-08-29T14:45:57.047Z,34.71
2022-08-29T15:15:57.086Z,36.67
2022-08-29T15:21:57.046Z,36.55
2022-08-29T15:27:57.030Z,36.52
2022-08-29T15:51:57.092Z,35.65
2022-08-29T15:57:57.091Z,38.26
2022-08-29T16:03:57.099Z,38.25
2022-08-29T16:39:57.169Z,43.90
2022-08-29T16:57:57.157Z,44.01
2022-08-29T17:03:57.152Z,44.30
2022-08-29T17:09:57.157Z,46.43
2022-08-29T17:15:57.164Z,45.46
2022-08-29T17:21:57.172Z,47.27
2022-08-29T17:28:16.714Z,47.73
2022-08-29T18:03:57.230Z,51.12
2022-08-29T18:09:57.228Z,50.71
2022-08-29T18:15:57.496Z,52.21
2022-08-29T19:21:57.331Z,57.90
2022-08-29T19:27:57.303Z,58.14
2022-08-29T19:33:57.325Z,57.84
2022-08-29T19:39:57.388Z,58.35
2022-08-29T19:51:57.401Z,59.27
2022-08-29T19:57:57.402Z,58.69
2022-08-29T20:03:57.392Z,59.38
2022-08-29T20:09:57.459Z,60.11
2022-08-29T20:15:57.468Z,61.40
2022-08-29T20:21:57.392Z,60.17
2022-08-29T20:27:57.394Z,60.01
2022-08-29T20:51:57.408Z,61.75
2022-08-29T20:57:57.415Z,63.31
2022-08-29T21:03:57.426Z,62.87
2022-08-29T21:09:57.427Z,62.15
2022-08-29T21:15:57.461Z,61.45
2022-08-29T21:21:57.486Z,60.60
2022-08-29T21:27:57.479Z,61.60
2022-08-29T21:45:57.469Z,63.67
2022-08-29T21:51:57.510Z,62.28
2022-08-29T22:21:58.608Z,62.19
2022-08-29T22:27:58.713Z,62.30
2022-08-29T22:51:57.515Z,63.92
2022-08-29T22:57:57.524Z,64.67
2022-08-29T23:03:57.532Z,64.36
2022-08-29T23:09:57.524Z,63.87
2022-08-29T23:15:57.607Z,64.85
2022-08-29T23:21:57.549Z,65.44
2022-08-29T23:27:57.524Z,64.77
2022-08-29T23:33:57.567Z,64.21
